Cape Carteret, North Carolina
Current Conditions -  °F | °C
As of 10:57 AM on Sunday 25 Jan 2015 (Local Time) from KNJM Reporting Station
Clear Clear  
Wind Chill: 46°   Ceiling: Unl
Heat Index: 49°   Visibility: NA
Dew Point: 31°   Wind: 7mph
Humidity: 50%   Direction: 310°NW
Pressure: 29.98"   Gusts: NA
Location:  34.7017°N, 77.1399°W
Report Text: KNJM 251557Z AUTO 31006KT CLR 09/M01 A2998 RMK AO2 SLP156 T00941006 $
Loading
Personal Weather Stations






























Interactive Weather Map New forecast layout! Learn more

10-Day Weather Forecast

Advertisements
Track Severe Weather on mobile